Airfield :







YOU CAN JOIN US ON...

 
LOGIN :

Register | Disclaimer

   EN    FR    IT 

 









Legend :    VFR   Marginal VFR   IFR   Intensive IFR   Very Intensive IFR
Visi :
Ceiling :
>= 8 km
>= 3000ft
5 to 8 km
1000 to 3000 ft
1500m to 5 km
500 to 1000 ft
800 to 1500m
200 to 500 ft
< 800m
< 200 ft
Symbols :   Thunderstorms  Fog  Heavy snow  Heavy precipitations  Wind > 20 kt







- Airport Elevation : 232 ft
- IATA code : YQM


CYQM - Greater Moncton International

CURRENT METAR :
  • 190500Z 23004KT 15SM SKC 02/02 A3030 RMK SLP265

EXPIRED METARs :
  • 190403Z 23006KT 15SM SKC 02/02 A3031 RMK SLP266

TAF TAF CYQM
Valid from the 19 at 06:00 until the 20 at 06:00 UTC


190538Z 1906/2006 23005KT P6SM SKC
PROB30 1906/1911 1/2SM FG VV002
FM191800 27005KT P6SM FEW025
BECMG 1920/1922 18005KT RMK NXT FCST BY 191200Z
No reported NOTAMs for that airfield.



MET'MAP, your aeronautical weather chart ! - Copyright ORBIFLY December 2007 - Disclaimer

ORBIFLY MET'MAP TEAM :

Programming & Development : Alexandra Zaïnal
Concept & Development : Baudouin d'Aumeries
Co-Development & Prog : Marc-Olivier Méhu
Technical & hardware support : Manuel Goepfert

Contact : metmap@orbifly.com




SOURCES & CREDITS :

   NOAA